Date,TemperatureHighF,TemperatureAvgF,TemperatureLowF,DewpointHighF,DewpointAvgF,DewpointLowF,HumidityHigh,HumidityAvg,HumidityLow,PressureMaxIn,PressureMinIn,WindSpeedMaxMPH,WindSpeedAvgMPH,GustSpeedMaxMPH,PrecipitationSumIn
2013-3-1,33,27,24,29,23,20,96,85,70,30.00,29.84,8,3,0,0.00
2013-3-2,33,22,13,20,16,10,91,77,54,30.02,29.96,8,2,0,0.00
2013-3-3,38,23,9,17,13,8,96,70,38,29.97,29.84,3,0,0,0.16
2013-3-4,38,31,24,29,24,15,89,77,67,29.87,29.67,11,4,0,0.09
2013-3-5,33,31,26,32,30,26,99,96,84,29.84,29.60,7,2,0,0.00
2013-3-6,32,27,23,26,23,21,99,87,74,30.13,29.84,8,2,0,0.00
2013-3-7,44,30,24,28,24,22,94,80,51,30.20,30.12,6,0,0,0.34
2013-3-8,45,34,22,34,29,22,99,83,65,30.23,30.01,9,1,0,0.34
2013-3-9,50,42,36,42,36,31,93,81,66,30.01,29.54,8,3,0,0.32
2013-3-10,52,48,42,51,47,42,99,97,84,29.58,29.36,10,2,0,1.29
2013-3-11,46,35,30,46,34,26,99,95,87,29.67,29.37,8,3,0,0.05
2013-3-12,40,30,24,32,25,19,94,82,64,29.90,29.67,11,3,0,0.01
2013-3-13,38,28,21,23,19,16,88,72,42,30.15,29.89,10,3,0,0.01
2013-3-14,46,32,21,31,24,18,89,74,52,30.14,29.85,6,1,0,0.00
2013-3-15,54,42,31,42,35,28,91,77,55,29.84,29.44,6,2,0,0.00
2013-3-16,42,35,30,40,32,25,99,87,65,29.89,29.42,7,2,0,0.00
2013-3-17,36,32,28,28,25,22,85,77,66,29.94,29.68,13,4,0,0.00
2013-3-18,39,31,24,36,28,16,99,87,70,29.69,29.45,17,5,0,0.10
2013-3-19,42,28,18,19,15,10,77,60,35,29.93,29.68,9,4,0,0.00
2013-3-20,32,23,14,20,10,5,78,60,39,29.98,29.87,16,4,0,0.00
2013-3-21,37,23,10,15,11,7,91,62,36,29.89,29.77,6,1,0,0.00
2013-3-22,47,32,18,24,18,14,93,61,31,29.85,29.76,7,1,0,0.00
2013-3-23,48,37,28,26,24,22,78,61,42,29.88,29.72,9,2,0,0.00
2013-3-24,32,30,28,31,29,24,99,95,72,29.76,29.41,8,3,0,0.00
2013-3-25,41,31,26,31,27,25,99,87,66,29.90,29.54,10,2,0,0.34
2013-3-26,40,34,30,28,27,26,85,74,58,30.08,29.91,8,1,0,0.17
2013-3-27,47,36,26,28,25,22,93,66,43,30.14,30.07,7,0,0,0.02
2013-3-28,53,39,26,33,28,22,86,64,43,30.16,30.04,6,0,0,0.00
2013-3-29,59,46,34,33,31,28,86,60,36,30.09,29.97,6,1,0,0.00
2013-3-30,57,47,34,42,38,30,94,71,55,30.00,29.65,9,2,0,0.00
2013-3-31,62,50,38,45,39,28,93,68,39,29.72,29.55,11,2,0,0.00